Pagina principale
METAR-TAF:

METAR-TAF

Aeroporti :

Mendoza, Argentina

latitudine: 32-50S, longitudine: 068-47W, altezza: 705 m

Osservazione

Il bollettino è stato emesso 57 minuti fa, alle 22:00 UTC
Vento 4 kt da nord-est
Temperature 16°C
Umidità 39%
Pressione 1019 hPa
Visibilità 10 km o più
nessuna nube inferiore a 1500 m e nessun cumulonembo

METAR: SAME 152200Z 05004KT CAVOK 16/02 Q1019

Ora: 19:57 (22:57 UTC)

Previsione

Il bollettino è stato emesso 5 ore e 57 minuti fa, alle 17:00 UTC
Previsione valida dal 15 alle 18 UTC al 16 alle 18 UTC
Vento 5 kt da nord-est
Visibilità 10 km o più
nessuna nube inferiore a 1500 m e nessun cumulonembo

TAF: SAME 151700Z 1518/1618 05005KT CAVOK TX20/1520Z TN02/1610Z

Osservazioni e previsioni meteorologiche di più di 4000 aeroporti (messaggi METAR e TAF).

Le stazioni disponibili sono rappresentate dai dischi gialli e rossi sulla carta.

Puntare il mouse per vedere il nome della stazione.

Clicca sopra per visualizzare le osservazioni e previsioni meteorologiche.

Per cambiare la mappa : fare clic sui pulsanti verdi con una croce nera per ingrandire, il pulsante verde con un trattino per diminuire, o sulla freccia verde per le mappe adiacenti.


METAR-TAF: